Time;durP1;ratioP1;P1;durP2;ratioP2;P2;SDS_P1;SDS_P2;PMS_P1;PMS_P2;Temp;Humidity;BMP_temperature;BMP_pressure;BME280_temperature;BME280_humidity;BME280_pressure;Samples;Min_cycle;Max_cycle;Signal;HPM_P1;HPM_P2
2023/02/01 00:03:42;;;;;;;5.57;5.17;;;6.20;99.90;;;;;;10490525;28;20197;-82
2023/02/01 00:08:44;;;;;;;5.93;5.53;;;6.30;99.90;;;;;;10478682;28;20201;-82
2023/02/01 00:13:46;;;;;;;6.20;5.80;;;6.30;99.90;;;;;;10462507;28;20217;-82
2023/02/01 00:18:51;;;;;;;6.10;5.60;;;6.20;99.90;;;;;;10467162;28;20284;-82
2023/02/01 00:23:53;;;;;;;5.50;5.00;;;6.20;99.90;;;;;;10442319;28;20221;-81
2023/02/01 00:28:55;;;;;;;5.20;4.80;;;6.30;99.90;;;;;;10451273;28;20197;-82
2023/02/01 00:33:58;;;;;;;5.00;4.70;;;6.20;99.90;;;;;;10450195;28;20225;-81
2023/02/01 00:39:00;;;;;;;5.95;5.55;;;6.30;99.90;;;;;;10449090;28;20224;-82
2023/02/01 00:44:03;;;;;;;5.25;4.95;;;6.50;99.90;;;;;;10457794;28;20232;-81
2023/02/01 00:49:08;;;;;;;5.07;4.77;;;6.70;99.90;;;;;;10513235;28;20201;-81
2023/02/01 00:54:11;;;;;;;4.40;4.10;;;6.70;99.90;;;;;;10474598;28;20224;-80
2023/02/01 00:59:13;;;;;;;4.97;4.57;;;6.60;99.90;;;;;;10497330;28;20203;-81
2023/02/01 01:04:16;;;;;;;4.60;4.30;;;6.50;99.90;;;;;;10498579;28;20692;-81
2023/02/01 01:09:18;;;;;;;4.63;4.33;;;6.50;99.90;;;;;;10493456;28;20723;-81
2023/02/01 01:14:20;;;;;;;4.30;4.10;;;6.50;99.90;;;;;;10496164;28;20212;-81
2023/02/01 01:19:24;;;;;;;4.05;3.85;;;6.60;99.90;;;;;;10496254;28;20209;-81
2023/02/01 01:24:26;;;;;;;4.40;4.10;;;6.70;99.90;;;;;;10496154;28;20220;-81
2023/02/01 01:29:28;;;;;;;4.05;3.85;;;6.70;99.90;;;;;;10495936;28;20196;-81
2023/02/01 01:34:32;;;;;;;3.83;3.63;;;6.80;99.90;;;;;;10496117;28;20216;-81
2023/02/01 01:39:34;;;;;;;4.10;3.90;;;7.00;99.90;;;;;;10503654;28;20220;-81
2023/02/01 01:45:00;;;;;;;3.60;3.33;;;6.90;99.90;;;;;;10550314;22;20248;-79
2023/02/01 01:50:08;;;;;;;3.33;3.23;;;6.80;99.90;;;;;;10560055;28;20213;-80
2023/02/01 01:55:11;;;;;;;3.70;3.50;;;6.70;99.90;;;;;;10598289;28;20219;-80
2023/02/01 02:00:16;;;;;;;3.50;3.30;;;6.70;99.90;;;;;;10570365;28;20203;-79
2023/02/01 02:05:22;;;;;;;3.80;3.60;;;6.60;99.90;;;;;;10552223;28;20686;-79
2023/02/01 02:10:59;;;;;;;4.43;4.20;;;6.50;99.90;;;;;;10562601;28;20195;-80
2023/02/01 02:15:54;;;;;;;3.78;3.58;;;6.50;99.90;;;;;;10602932;28;20305;-80
2023/02/01 02:21:18;;;;;;;3.63;3.42;;;6.70;99.90;;;;;;10589108;28;20252;-80
2023/02/01 02:26:44;;;;;;;3.87;3.67;;;6.90;99.90;;;;;;10578080;28;20212;-79
2023/02/01 02:32:31;;;;;;;4.03;3.80;;;7.00;99.90;;;;;;10574999;28;20207;-79
2023/02/01 02:37:42;;;;;;;4.67;4.13;;;6.80;99.90;;;;;;10532624;28;20225;-79
2023/02/01 02:48:18;;;;;;;4.10;3.90;;;6.90;99.90;;;;;;10540232;28;20183;-80
2023/02/01 03:04:17;;;;;;;4.40;4.20;;;6.60;99.90;;;;;;10541800;28;20297;-79
2023/02/01 03:09:27;;;;;;;4.23;4.03;;;6.50;99.90;;;;;;10559725;28;20207;-80
2023/02/01 03:14:31;;;;;;;4.40;4.20;;;6.50;99.90;;;;;;10562786;28;20254;-79
2023/02/01 03:19:36;;;;;;;4.50;4.30;;;6.40;99.90;;;;;;10575079;28;20215;-78
2023/02/01 03:24:43;;;;;;;4.83;4.53;;;6.40;99.90;;;;;;10555025;28;20218;-78
2023/02/01 03:29:50;;;;;;;4.27;4.07;;;6.40;99.90;;;;;;10586308;28;20200;-78
2023/02/01 03:34:53;;;;;;;4.07;3.87;;;6.50;99.90;;;;;;10564709;28;20226;-79
2023/02/01 03:40:01;;;;;;;4.33;4.13;;;6.50;99.90;;;;;;10562196;28;20200;-79
2023/02/01 03:45:12;;;;;;;4.03;3.83;;;6.50;99.90;;;;;;10561478;28;20232;-77
2023/02/01 03:50:17;;;;;;;3.97;3.77;;;6.50;99.90;;;;;;10549073;28;20200;-78
2023/02/01 03:55:23;;;;;;;3.70;3.50;;;6.40;99.90;;;;;;10522688;28;20219;-78
2023/02/01 04:00:27;;;;;;;4.20;4.00;;;6.50;99.90;;;;;;10557573;28;20197;-77
2023/02/01 04:05:31;;;;;;;4.40;4.13;;;6.40;99.90;;;;;;10557199;28;20785;-78
2023/02/01 04:10:44;;;;;;;2.90;2.70;;;6.50;99.90;;;;;;10556667;28;20213;-78
2023/02/01 04:15:49;;;;;;;4.07;3.87;;;6.50;99.90;;;;;;10555730;28;20260;-79
2023/02/01 04:20:51;;;;;;;4.80;4.50;;;6.50;99.90;;;;;;10568871;28;20206;-78
2023/02/01 04:25:59;;;;;;;5.13;4.83;;;6.70;99.90;;;;;;10546194;28;20215;-79
2023/02/01 04:31:01;;;;;;;5.87;5.47;;;6.70;99.90;;;;;;10564957;28;20196;-79
2023/02/01 04:36:03;;;;;;;4.50;4.30;;;6.70;99.90;;;;;;10580951;28;20227;-79
2023/02/01 04:41:07;;;;;;;5.27;4.97;;;6.60;99.90;;;;;;10562106;28;20199;-79
2023/02/01 04:46:09;;;;;;;6.30;5.80;;;6.60;99.90;;;;;;10558755;28;20759;-79
2023/02/01 04:51:12;;;;;;;3.70;3.50;;;6.60;99.90;;;;;;10581892;28;20371;-78
2023/02/01 04:56:15;;;;;;;5.20;4.90;;;6.60;99.90;;;;;;10579593;28;20215;-78
2023/02/01 05:01:17;;;;;;;5.40;5.10;;;6.60;99.90;;;;;;10557098;28;20435;-79
2023/02/01 05:06:19;;;;;;;4.97;4.68;;;6.60;99.90;;;;;;10578924;28;20683;-80
2023/02/01 05:16:42;;;;;;;5.00;4.60;;;6.90;99.90;;;;;;10590757;28;20649;-77
2023/02/01 05:21:44;;;;;;;4.47;4.07;;;6.80;99.90;;;;;;10584923;28;20202;-79
2023/02/01 05:27:46;;;;;;;4.10;3.90;;;6.80;99.90;;;;;;10554476;28;20571;-80
2023/02/01 05:33:21;;;;;;;3.80;3.60;;;6.80;99.90;;;;;;10584945;28;20223;-80
2023/02/01 05:38:29;;;;;;;4.23;4.00;;;7.00;99.90;;;;;;10570213;28;20310;-80
2023/02/01 05:43:32;;;;;;;4.23;3.97;;;7.00;99.90;;;;;;10579875;28;20227;-79
2023/02/01 05:48:34;;;;;;;3.70;3.50;;;7.00;99.90;;;;;;10551526;28;20223;-79
2023/02/01 05:53:37;;;;;;;4.33;4.03;;;6.90;99.90;;;;;;10561491;28;20592;-81
2023/02/01 05:58:40;;;;;;;3.92;3.60;;;6.80;99.90;;;;;;10569100;28;20219;-81
2023/02/01 06:03:42;;;;;;;4.60;4.40;;;7.00;99.90;;;;;;10583374;28;20302;-80
2023/02/01 06:08:44;;;;;;;4.63;4.22;;;7.00;99.90;;;;;;10582729;28;20199;-81
2023/02/01 06:13:48;;;;;;;5.23;4.93;;;6.90;99.90;;;;;;10596062;28;20214;-80
2023/02/01 06:18:50;;;;;;;4.22;4.03;;;6.80;99.90;;;;;;10594117;28;20274;-80
2023/02/01 06:23:53;;;;;;;4.23;3.93;;;6.70;99.90;;;;;;10576286;28;20229;-80
2023/02/01 06:28:57;;;;;;;4.90;4.60;;;6.60;99.90;;;;;;10593613;28;20248;-80
2023/02/01 06:33:59;;;;;;;5.17;4.80;;;6.40;99.90;;;;;;10577168;28;20257;-81
2023/02/01 06:39:01;;;;;;;4.40;3.97;;;6.40;99.90;;;;;;10593960;27;20274;-80
2023/02/01 06:44:05;;;;;;;11.40;9.63;;;6.40;99.90;;;;;;10562517;27;20223;-81
2023/02/01 06:49:07;;;;;;;5.70;5.20;;;6.40;99.90;;;;;;10585234;28;20725;-80
2023/02/01 06:54:10;;;;;;;4.73;4.43;;;6.50;99.90;;;;;;10566158;28;20230;-80
2023/02/01 06:59:13;;;;;;;4.90;4.50;;;6.70;99.90;;;;;;10553524;28;20853;-81
2023/02/01 07:04:15;;;;;;;5.07;4.70;;;6.80;99.90;;;;;;10555973;28;20251;-79
2023/02/01 07:09:17;;;;;;;4.40;4.00;;;6.80;99.90;;;;;;10560616;28;20211;-80
2023/02/01 07:14:21;;;;;;;4.47;4.17;;;6.80;99.90;;;;;;10571808;28;20215;-81
2023/02/01 07:19:23;;;;;;;4.00;3.63;;;6.80;99.90;;;;;;10537175;28;20215;-81
2023/02/01 07:24:25;;;;;;;5.40;5.00;;;6.80;99.90;;;;;;10544933;28;20229;-82
2023/02/01 07:29:28;;;;;;;9.30;4.37;;;7.00;99.90;;;;;;10580768;28;20202;-82
2023/02/01 07:34:31;;;;;;;6.03;5.23;;;7.10;99.90;;;;;;10563221;28;20231;-82
2023/02/01 07:39:36;;;;;;;4.73;4.43;;;7.10;99.90;;;;;;10561159;28;20217;-81
2023/02/01 07:44:39;;;;;;;4.30;3.90;;;7.10;99.90;;;;;;10630642;22;20599;-81
2023/02/01 07:49:42;;;;;;;4.20;3.80;;;7.10;99.90;;;;;;10596276;27;20255;-82
2023/02/01 07:54:44;;;;;;;4.23;3.80;;;7.10;99.90;;;;;;10602998;27;20251;-79
2023/02/01 08:05:04;;;;;;;6.70;3.87;;;7.20;99.90;;;;;;10646747;27;20226;-79
2023/02/01 08:10:10;;;;;;;4.43;4.03;;;7.20;99.90;;;;;;10632411;27;20196;-80
2023/02/01 08:15:14;;;;;;;4.40;4.00;;;7.30;99.90;;;;;;10639787;27;20214;-80
2023/02/01 08:20:16;;;;;;;5.67;4.10;;;7.60;99.90;;;;;;10628581;27;20215;-80
2023/02/01 08:25:19;;;;;;;4.60;4.15;;;7.60;99.90;;;;;;10586814;27;20219;-80
2023/02/01 08:30:22;;;;;;;5.00;4.60;;;7.60;99.90;;;;;;10621412;27;20195;-80
2023/02/01 08:35:24;;;;;;;6.23;4.53;;;7.60;99.90;;;;;;10616484;27;20214;-80
2023/02/01 08:40:26;;;;;;;7.20;4.37;;;7.50;99.90;;;;;;10639872;27;20214;-80
2023/02/01 08:45:30;;;;;;;5.50;5.00;;;7.50;99.90;;;;;;10627819;27;20254;-80
2023/02/01 08:50:33;;;;;;;5.60;4.57;;;7.50;99.90;;;;;;10617788;27;20201;-81
2023/02/01 08:55:35;;;;;;;6.47;4.10;;;7.60;99.90;;;;;;10589640;27;20267;-81
2023/02/01 09:00:38;;;;;;;6.00;4.10;;;7.70;99.90;;;;;;10631890;27;20286;-81
2023/02/01 09:05:40;;;;;;;6.20;4.03;;;7.70;99.90;;;;;;10614164;27;20214;-80
2023/02/01 09:10:43;;;;;;;6.93;4.10;;;7.70;99.90;;;;;;10637624;27;20281;-81
2023/02/01 09:15:46;;;;;;;4.90;4.27;;;7.70;99.90;;;;;;10615255;27;20225;-81
2023/02/01 09:20:48;;;;;;;10.23;4.63;;;7.70;99.90;;;;;;10605016;27;20199;-79
2023/02/01 09:25:51;;;;;;;7.40;4.40;;;7.70;99.90;;;;;;10579895;27;20261;-81
2023/02/01 09:30:58;;;;;;;5.00;4.47;;;7.70;99.90;;;;;;10651474;27;20240;-80
2023/02/01 09:36:02;;;;;;;7.67;4.47;;;7.70;99.90;;;;;;10595863;27;20700;-80
2023/02/01 09:41:15;;;;;;;8.80;5.10;;;7.80;99.90;;;;;;10621609;27;20200;-81
2023/02/01 09:46:24;;;;;;;7.50;4.63;;;8.00;99.90;;;;;;10636922;27;20226;-80
2023/02/01 09:51:31;;;;;;;11.00;4.30;;;8.20;99.60;;;;;;10612944;28;20282;-80
2023/02/01 09:56:39;;;;;;;10.27;4.67;;;8.30;99.60;;;;;;10611036;27;20304;-79
2023/02/01 10:01:43;;;;;;;6.13;4.43;;;8.40;98.70;;;;;;10662700;27;20182;-80
2023/02/01 10:07:05;;;;;;;9.93;4.37;;;8.40;98.50;;;;;;10635173;27;20206;-79
2023/02/01 10:12:47;;;;;;;9.20;4.47;;;8.40;98.40;;;;;;10609055;27;20237;-80
2023/02/01 10:18:03;;;;;;;8.37;5.10;;;8.50;98.40;;;;;;10580802;27;20217;-80
2023/02/01 10:23:12;;;;;;;6.10;4.33;;;8.50;98.00;;;;;;10618185;27;20238;-80
2023/02/01 10:28:17;;;;;;;12.30;5.17;;;8.50;98.10;;;;;;10616871;27;20221;-81
2023/02/01 10:33:27;;;;;;;9.63;3.70;;;8.50;97.20;;;;;;10645831;27;20623;-80
2023/02/01 10:38:32;;;;;;;15.20;5.23;;;8.70;97.50;;;;;;10636918;27;20463;-80
2023/02/01 10:43:34;;;;;;;9.13;4.10;;;8.80;97.40;;;;;;10625816;27;20309;-80
2023/02/01 10:48:40;;;;;;;9.23;4.18;;;8.80;97.70;;;;;;10633015;27;20190;-80
2023/02/01 10:53:49;;;;;;;8.30;4.40;;;9.00;96.50;;;;;;10629839;27;20773;-79
2023/02/01 10:58:52;;;;;;;8.30;3.70;;;9.10;96.90;;;;;;10630121;27;20222;-80
2023/02/01 11:03:58;;;;;;;8.40;4.03;;;9.10;95.70;;;;;;10646474;27;20258;-80
2023/02/01 11:09:09;;;;;;;9.30;4.63;;;9.10;95.60;;;;;;10612757;27;20194;-80
2023/02/01 11:14:16;;;;;;;9.38;4.28;;;9.00;95.00;;;;;;10652219;27;20234;-81
2023/02/01 11:19:20;;;;;;;7.80;4.50;;;9.10;95.20;;;;;;10631352;27;20213;-80
2023/02/01 11:24:25;;;;;;;6.53;3.90;;;9.20;94.50;;;;;;10624212;27;20218;-80
2023/02/01 11:29:32;;;;;;;7.50;4.00;;;9.10;94.90;;;;;;10614972;27;20226;-80
2023/02/01 11:34:39;;;;;;;10.33;5.00;;;9.00;95.10;;;;;;10648629;27;20202;-80
2023/02/01 11:39:42;;;;;;;12.07;4.50;;;8.90;94.90;;;;;;10629837;27;20209;-81
2023/02/01 11:44:46;;;;;;;5.57;3.77;;;8.90;95.80;;;;;;10632108;27;20634;-80
2023/02/01 11:49:51;;;;;;;5.80;4.00;;;9.00;95.50;;;;;;10613538;27;20232;-82
2023/02/01 11:55:15;;;;;;;7.40;3.80;;;9.10;95.00;;;;;;10626498;27;20222;-82
2023/02/01 12:00:32;;;;;;;11.70;4.50;;;9.20;94.40;;;;;;10599148;27;20306;-82
2023/02/01 12:05:51;;;;;;;8.27;3.90;;;9.20;94.00;;;;;;10610669;27;20525;-82
2023/02/01 12:11:08;;;;;;;10.52;5.07;;;9.30;93.60;;;;;;10613109;27;20232;-82
2023/02/01 12:16:23;;;;;;;6.53;3.63;;;9.30;93.20;;;;;;10623758;27;20706;-82
2023/02/01 12:21:42;;;;;;;9.73;4.10;;;9.20;93.60;;;;;;10590682;27;20708;-83
2023/02/01 12:26:55;;;;;;;10.90;7.00;;;9.00;93.50;;;;;;10641009;27;20605;-82
2023/02/01 12:32:09;;;;;;;8.87;3.60;;;8.90;93.70;;;;;;10645207;27;20199;-83
2023/02/01 12:37:23;;;;;;;7.80;3.97;;;8.80;93.80;;;;;;10624518;27;20298;-82
2023/02/01 12:42:28;;;;;;;8.27;4.05;;;8.90;93.10;;;;;;10608208;27;20604;-82
2023/02/01 12:47:35;;;;;;;10.73;3.57;;;9.00;93.20;;;;;;10606286;27;20231;-81
2023/02/01 12:52:43;;;;;;;8.47;3.47;;;8.90;93.10;;;;;;10604474;27;20252;-81
2023/02/01 12:57:50;;;;;;;8.97;4.03;;;8.80;93.70;;;;;;10638368;27;20228;-81
2023/02/01 13:02:57;;;;;;;11.20;4.40;;;8.60;94.00;;;;;;10582732;27;20249;-82
2023/02/01 13:08:07;;;;;;;7.50;4.10;;;8.60;94.00;;;;;;10599330;27;20198;-80
2023/02/01 13:13:14;;;;;;;10.50;4.47;;;8.50;94.50;;;;;;10599426;27;20309;-82
2023/02/01 13:18:19;;;;;;;10.33;4.13;;;8.50;94.90;;;;;;10646470;27;20241;-83
2023/02/01 13:23:28;;;;;;;7.93;3.93;;;8.40;94.80;;;;;;10616764;27;20210;-85
2023/02/01 13:28:36;;;;;;;8.90;3.90;;;8.40;95.20;;;;;;10573064;27;20193;-81
2023/02/01 13:34:02;;;;;;;6.33;4.00;;;8.50;94.50;;;;;;10626755;27;20221;-80
2023/02/01 13:39:44;;;;;;;7.88;3.85;;;8.50;94.20;;;;;;10627622;27;20741;-82
2023/02/01 13:44:51;;;;;;;19.80;14.60;;;8.60;94.20;;;;;;10474538;22;20223;-82
2023/02/01 13:49:55;;;;;;;7.07;4.57;;;8.70;94.20;;;;;;10502718;28;20192;-80
2023/02/01 13:55:25;;;;;;;11.00;4.37;;;8.60;95.20;;;;;;10528571;28;20306;-80
2023/02/01 14:00:31;;;;;;;6.93;4.33;;;8.60;94.90;;;;;;10529017;28;20215;-80
2023/02/01 14:06:04;;;;;;;8.23;4.07;;;8.50;94.60;;;;;;10515919;28;20215;-80
2023/02/01 14:11:33;;;;;;;8.17;4.57;;;8.40;94.80;;;;;;10459283;28;20204;-80
2023/02/01 14:16:36;;;;;;;10.10;4.90;;;8.40;95.20;;;;;;10513277;28;20223;-80
2023/02/01 14:21:48;;;;;;;5.23;3.53;;;8.40;95.00;;;;;;10534214;28;20215;-81
2023/02/01 14:26:53;;;;;;;7.13;3.07;;;8.40;95.50;;;;;;10549174;28;20230;-80
2023/02/01 14:32:04;;;;;;;20.77;11.27;;;8.40;94.80;;;;;;10522353;28;20295;-80
2023/02/01 14:37:09;;;;;;;11.30;5.25;;;8.40;94.90;;;;;;10522561;28;20220;-80
2023/02/01 14:42:24;;;;;;;8.20;3.72;;;8.50;95.10;;;;;;10539910;28;20246;-80
2023/02/01 14:47:33;;;;;;;9.93;4.20;;;8.70;94.60;;;;;;10535273;28;20746;-80
2023/02/01 14:52:42;;;;;;;10.65;4.35;;;8.70;94.20;;;;;;10528439;28;20212;-82
2023/02/01 14:57:50;;;;;;;10.50;4.10;;;8.70;94.20;;;;;;10518129;28;20215;-79
2023/02/01 15:02:54;;;;;;;6.60;4.20;;;8.60;93.70;;;;;;10514976;28;20601;-80
2023/02/01 15:07:57;;;;;;;7.27;3.90;;;8.50;94.60;;;;;;10498440;28;20204;-80
2023/02/01 15:13:01;;;;;;;10.90;4.20;;;8.40;94.50;;;;;;10528264;28;20736;-80
2023/02/01 15:18:03;;;;;;;11.03;4.60;;;8.50;94.40;;;;;;10515240;28;20246;-79
2023/02/01 15:23:16;;;;;;;12.23;4.70;;;8.50;94.30;;;;;;10538250;28;20250;-80
2023/02/01 15:28:21;;;;;;;10.27;3.50;;;8.40;94.60;;;;;;10528442;28;20212;-80
2023/02/01 15:33:23;;;;;;;6.77;3.93;;;8.30;94.60;;;;;;10526221;28;20259;-80
2023/02/01 15:38:35;;;;;;;9.57;4.00;;;8.20;95.10;;;;;;10518467;28;20232;-79
2023/02/01 15:43:41;;;;;;;10.50;4.17;;;8.20;95.10;;;;;;10529638;28;20306;-79
2023/02/01 15:48:46;;;;;;;10.40;5.03;;;8.10;95.20;;;;;;10528805;28;20222;-79
2023/02/01 15:53:54;;;;;;;8.45;4.80;;;8.10;95.10;;;;;;10512516;28;20311;-78
2023/02/01 15:59:01;;;;;;;7.17;4.53;;;8.20;95.20;;;;;;10519083;28;20216;-79
2023/02/01 16:04:13;;;;;;;8.60;3.70;;;8.20;94.20;;;;;;10516584;28;20221;-79
2023/02/01 16:09:17;;;;;;;8.33;3.20;;;8.20;94.20;;;;;;10516413;28;20188;-79
2023/02/01 16:14:21;;;;;;;7.60;3.63;;;8.10;94.00;;;;;;10532027;28;20310;-79
2023/02/01 16:19:27;;;;;;;7.40;3.87;;;8.10;94.00;;;;;;10543414;28;20579;-79
2023/02/01 16:24:31;;;;;;;6.50;3.37;;;8.00;94.40;;;;;;10519287;28;20224;-79
2023/02/01 16:29:35;;;;;;;7.67;4.07;;;8.10;93.70;;;;;;10506450;28;20326;-79
2023/02/01 16:34:37;;;;;;;5.27;3.70;;;8.00;94.20;;;;;;10510212;28;20742;-79
2023/02/01 16:39:39;;;;;;;10.03;4.10;;;8.00;93.60;;;;;;10509617;28;20257;-79
2023/02/01 16:44:43;;;;;;;6.50;3.45;;;8.00;93.90;;;;;;10530279;28;20285;-79
2023/02/01 16:49:45;;;;;;;16.50;5.30;;;8.20;94.20;;;;;;10505151;28;20201;-79
2023/02/01 16:54:48;;;;;;;9.10;3.70;;;8.20;93.60;;;;;;10537997;28;20326;-79
2023/02/01 16:59:52;;;;;;;7.33;3.93;;;8.20;93.90;;;;;;10511372;28;20786;-79
2023/02/01 17:04:54;;;;;;;7.50;3.57;;;8.10;93.80;;;;;;10519866;28;20220;-79
2023/02/01 17:09:59;;;;;;;8.10;3.80;;;8.00;93.70;;;;;;10512691;28;20199;-79
2023/02/01 17:15:03;;;;;;;8.27;4.53;;;7.90;94.30;;;;;;10539975;28;20222;-80
2023/02/01 17:20:07;;;;;;;8.60;4.10;;;7.90;94.40;;;;;;10516238;28;20231;-80
2023/02/01 17:25:16;;;;;;;7.07;4.80;;;8.00;94.00;;;;;;10526547;28;20462;-80
2023/02/01 17:30:22;;;;;;;9.73;4.70;;;8.00;94.70;;;;;;10542860;28;20200;-80
2023/02/01 17:35:27;;;;;;;10.83;3.80;;;7.90;94.30;;;;;;10524792;28;20219;-80
2023/02/01 17:40:30;;;;;;;10.97;4.20;;;7.90;94.60;;;;;;10542362;28;20214;-80
2023/02/01 17:45:40;;;;;;;7.67;4.50;;;7.90;94.40;;;;;;10508708;28;20709;-80
2023/02/01 17:50:42;;;;;;;7.07;4.43;;;7.90;94.60;;;;;;10511055;28;20188;-80
2023/02/01 17:55:46;;;;;;;9.03;5.40;;;7.80;94.50;;;;;;10520269;28;20659;-81
2023/02/01 18:00:50;;;;;;;11.50;5.10;;;7.80;94.70;;;;;;10539108;28;20216;-80
2023/02/01 18:05:53;;;;;;;8.43;4.27;;;7.90;94.80;;;;;;10534214;28;20214;-80
2023/02/01 18:10:58;;;;;;;8.07;4.18;;;7.90;94.50;;;;;;10534331;28;20203;-80
2023/02/01 18:16:03;;;;;;;10.47;4.80;;;8.00;94.60;;;;;;10551441;28;20220;-81
2023/02/01 18:21:05;;;;;;;8.03;4.20;;;8.00;94.60;;;;;;10518407;28;20644;-80
2023/02/01 18:26:11;;;;;;;10.60;4.50;;;7.90;94.60;;;;;;10515838;28;20227;-80
2023/02/01 18:31:22;;;;;;;11.30;4.63;;;7.90;95.00;;;;;;10532835;28;20189;-80
2023/02/01 18:36:25;;;;;;;10.77;4.57;;;7.90;94.80;;;;;;10515841;28;20312;-79
2023/02/01 18:41:27;;;;;;;7.67;5.10;;;7.90;95.20;;;;;;10524647;28;20222;-80
2023/02/01 18:46:30;;;;;;;8.07;3.60;;;7.90;95.00;;;;;;10549473;28;20258;-80
2023/02/01 18:51:32;;;;;;;6.90;4.53;;;7.90;95.30;;;;;;10494064;28;20265;-80
2023/02/01 18:56:35;;;;;;;8.40;4.57;;;8.00;94.50;;;;;;10514659;28;20231;-79
2023/02/01 19:01:38;;;;;;;8.10;5.13;;;7.90;95.00;;;;;;10530375;28;20675;-80
2023/02/01 19:06:41;;;;;;;9.20;4.37;;;8.00;95.00;;;;;;10546401;28;20737;-80
2023/02/01 19:11:43;;;;;;;9.60;3.70;;;8.00;94.20;;;;;;10547967;28;20246;-80
2023/02/01 19:16:47;;;;;;;11.32;3.67;;;7.90;94.50;;;;;;10529955;28;20709;-80
2023/02/01 19:21:51;;;;;;;12.63;4.23;;;8.10;94.30;;;;;;10526243;28;20224;-79
2023/02/01 19:26:53;;;;;;;8.57;5.70;;;8.10;94.20;;;;;;10507879;28;20230;-80
2023/02/01 19:31:56;;;;;;;7.20;3.90;;;8.10;94.10;;;;;;10529695;28;20611;-79
2023/02/01 19:36:58;;;;;;;6.90;3.40;;;8.00;94.10;;;;;;10520118;28;20269;-80
2023/02/01 19:42:00;;;;;;;7.60;3.10;;;7.90;94.40;;;;;;10531985;28;20244;-79
2023/02/01 19:47:04;;;;;;;8.43;4.33;;;7.90;93.90;;;;;;10569748;28;20225;-81
2023/02/01 19:52:06;;;;;;;10.23;4.70;;;7.90;94.30;;;;;;10549783;28;20200;-80
2023/02/01 19:57:08;;;;;;;13.10;4.80;;;7.80;94.30;;;;;;10548718;28;20594;-80
2023/02/01 20:02:14;;;;;;;10.30;4.23;;;7.80;94.40;;;;;;10547006;28;20218;-81
2023/02/01 20:07:17;;;;;;;10.20;4.23;;;7.80;94.80;;;;;;10553666;28;20222;-79
2023/02/01 20:12:19;;;;;;;9.90;4.00;;;7.80;94.80;;;;;;10556878;28;20219;-79
2023/02/01 20:17:23;;;;;;;11.35;4.93;;;7.80;94.50;;;;;;10560586;28;20223;-82
2023/02/01 20:22:25;;;;;;;17.57;5.07;;;8.00;94.60;;;;;;10531623;28;20248;-80
2023/02/01 20:32:52;;;;;;;9.17;4.40;;;8.10;94.50;;;;;;10552726;28;20214;-81
2023/02/01 20:37:55;;;;;;;10.27;4.33;;;8.10;94.70;;;;;;10542786;28;20204;-80
2023/02/01 20:42:57;;;;;;;10.07;4.50;;;8.00;95.00;;;;;;10535697;28;20228;-79
2023/02/01 20:48:01;;;;;;;9.83;4.00;;;8.00;95.00;;;;;;10500049;28;20212;-78
2023/02/01 20:53:04;;;;;;;7.30;3.70;;;8.00;95.30;;;;;;10499155;28;20425;-79
2023/02/01 20:58:06;;;;;;;11.33;5.60;;;8.00;95.30;;;;;;10542788;28;20207;-79
2023/02/01 21:03:09;;;;;;;4.63;3.93;;;8.00;95.50;;;;;;10527439;28;20727;-78
2023/02/01 21:08:12;;;;;;;9.73;4.27;;;8.10;94.70;;;;;;10521633;28;20228;-78
2023/02/01 21:13:15;;;;;;;11.10;4.70;;;8.00;95.10;;;;;;10543013;28;20593;-78
2023/02/01 21:18:18;;;;;;;16.83;11.13;;;8.00;95.40;;;;;;10524186;28;20231;-78
2023/02/01 21:23:21;;;;;;;10.30;4.90;;;8.00;95.40;;;;;;10501956;28;20208;-78
2023/02/01 21:28:23;;;;;;;14.87;4.53;;;8.00;95.40;;;;;;10541904;28;20672;-79
2023/02/01 21:33:27;;;;;;;11.27;4.13;;;8.20;95.10;;;;;;10523724;28;20221;-78
2023/02/01 21:38:29;;;;;;;8.27;4.28;;;8.20;95.00;;;;;;10541385;28;20681;-79
2023/02/01 21:43:31;;;;;;;12.70;4.60;;;8.40;95.00;;;;;;10542869;28;20252;-78
2023/02/01 21:48:37;;;;;;;8.43;4.20;;;8.30;94.80;;;;;;10522720;28;20206;-78
2023/02/01 21:53:39;;;;;;;11.73;5.00;;;8.30;94.90;;;;;;10514668;28;20223;-80
2023/02/01 21:58:41;;;;;;;8.27;4.40;;;8.40;94.80;;;;;;10525262;28;20227;-79
2023/02/01 22:03:45;;;;;;;8.20;5.10;;;8.40;94.60;;;;;;10507987;28;20227;-78
2023/02/01 22:08:47;;;;;;;12.27;6.13;;;8.30;94.80;;;;;;10542525;28;20196;-78
2023/02/01 22:13:49;;;;;;;6.63;4.13;;;8.20;94.60;;;;;;10507340;28;20225;-79
2023/02/01 22:18:54;;;;;;;10.63;4.00;;;8.20;94.50;;;;;;10545482;28;20204;-81
2023/02/01 22:23:58;;;;;;;10.50;4.27;;;8.20;94.80;;;;;;10495897;28;20233;-80
2023/02/01 22:29:00;;;;;;;9.07;4.43;;;8.20;94.70;;;;;;10557200;28;20214;-81
2023/02/01 22:34:03;;;;;;;7.87;4.40;;;8.20;95.20;;;;;;10540434;28;20238;-81
2023/02/01 22:39:05;;;;;;;8.20;3.90;;;8.10;95.40;;;;;;10541090;28;20215;-81
2023/02/01 22:44:08;;;;;;;8.67;4.07;;;8.20;95.60;;;;;;10569873;28;20267;-81
2023/02/01 22:49:11;;;;;;;8.30;4.17;;;8.10;96.00;;;;;;10532545;28;20196;-81
2023/02/01 22:54:20;;;;;;;9.60;4.90;;;8.10;96.10;;;;;;10532568;28;20220;-81
2023/02/01 22:59:22;;;;;;;9.10;4.27;;;8.00;96.30;;;;;;10520087;28;20360;-82
2023/02/01 23:04:26;;;;;;;8.95;3.92;;;8.00;96.50;;;;;;10523058;28;20223;-81
2023/02/01 23:09:28;;;;;;;11.97;4.23;;;8.10;96.40;;;;;;10532091;28;20251;-79
2023/02/01 23:14:30;;;;;;;7.97;4.60;;;8.30;96.10;;;;;;10526272;28;20222;-81
2023/02/01 23:19:33;;;;;;;7.90;4.70;;;8.20;96.30;;;;;;10559779;28;20699;-82
2023/02/01 23:24:36;;;;;;;8.90;4.17;;;8.10;96.60;;;;;;10507863;28;20219;-79
2023/02/01 23:29:38;;;;;;;6.57;3.80;;;8.10;96.30;;;;;;10552679;28;20203;-79
2023/02/01 23:34:41;;;;;;;13.30;4.30;;;7.90;96.40;;;;;;10552029;28;20695;-79
2023/02/01 23:39:43;;;;;;;8.83;5.03;;;7.80;96.50;;;;;;10536411;28;20217;-78
2023/02/01 23:44:47;;;;;;;6.00;4.37;;;7.80;96.70;;;;;;10549341;28;20235;-78
2023/02/01 23:49:51;;;;;;;9.87;5.07;;;7.70;97.20;;;;;;10516244;28;20253;-78
2023/02/01 23:54:53;;;;;;;8.40;4.60;;;7.60;97.10;;;;;;10520255;28;20208;-78
2023/02/01 23:59:55;;;;;;;6.50;3.90;;;7.60;97.30;;;;;;10560489;28;20272;-78
